sensor_id;sensor_type;location;lat;lon;timestamp;pressure;altitude;pressure_sealevel;temperature
73662;BMP280;61956;52.540;13.382;2022-09-28T00:02:08;77866.00;;;10.26
73662;BMP280;61956;52.540;13.382;2022-09-28T00:04:38;78459.84;;;10.30
73662;BMP280;61956;52.540;13.382;2022-09-28T00:07:07;77891.50;;;10.28
73662;BMP280;61956;52.540;13.382;2022-09-28T00:09:36;77034.56;;;10.21
73662;BMP280;61956;52.540;13.382;2022-09-28T00:12:05;77659.03;;;10.25
73662;BMP280;61956;52.540;13.382;2022-09-28T00:14:35;77511.25;;;10.24
73662;BMP280;61956;52.540;13.382;2022-09-28T00:17:07;77199.69;;;10.21
73662;BMP280;61956;52.540;13.382;2022-09-28T00:19:37;77900.59;;;10.27
73662;BMP280;61956;52.540;13.382;2022-09-28T00:22:07;77783.69;;;10.26
73662;BMP280;61956;52.540;13.382;2022-09-28T00:24:36;77138.00;;;10.21
73662;BMP280;61956;52.540;13.382;2022-09-28T00:27:06;78197.00;;;10.27
73662;BMP280;61956;52.540;13.382;2022-09-28T00:29:36;77882.59;;;10.27
73662;BMP280;61956;52.540;13.382;2022-09-28T00:32:09;77470.09;;;10.24
73662;BMP280;61956;52.540;13.382;2022-09-28T00:34:42;77217.69;;;10.21
73662;BMP280;61956;52.540;13.382;2022-09-28T00:37:14;76670.50;;;10.17
73662;BMP280;61956;52.540;13.382;2022-09-28T00:39:44;76812.50;;;10.17
73662;BMP280;61956;52.540;13.382;2022-09-28T00:42:16;76774.75;;;10.16
73662;BMP280;61956;52.540;13.382;2022-09-28T00:44:47;76649.59;;;10.14
73662;BMP280;61956;52.540;13.382;2022-09-28T00:47:36;77462.78;;;10.19
73662;BMP280;61956;52.540;13.382;2022-09-28T00:50:15;78169.53;;;10.26
73662;BMP280;61956;52.540;13.382;2022-09-28T00:52:53;77831.53;;;10.23
73662;BMP280;61956;52.540;13.382;2022-09-28T00:55:30;77394.53;;;10.21
73662;BMP280;61956;52.540;13.382;2022-09-28T00:58:07;76204.00;;;10.11
73662;BMP280;61956;52.540;13.382;2022-09-28T01:00:40;76433.31;;;10.12
73662;BMP280;61956;52.540;13.382;2022-09-28T01:03:12;75864.69;;;10.07
73662;BMP280;61956;52.540;13.382;2022-09-28T01:05:42;74974.34;;;9.99
73662;BMP280;61956;52.540;13.382;2022-09-28T01:08:12;75008.56;;;9.97
73662;BMP280;61956;52.540;13.382;2022-09-28T01:10:46;74993.44;;;9.95
73662;BMP280;61956;52.540;13.382;2022-09-28T01:13:19;75784.66;;;10.00
73662;BMP280;61956;52.540;13.382;2022-09-28T01:15:58;76482.25;;;10.05
73662;BMP280;61956;52.540;13.382;2022-09-28T01:18:44;76976.13;;;10.08
73662;BMP280;61956;52.540;13.382;2022-09-28T01:21:23;77130.75;;;10.10
73662;BMP280;61956;52.540;13.382;2022-09-28T01:24:07;76685.09;;;10.07
73662;BMP280;61956;52.540;13.382;2022-09-28T01:27:14;76253.19;;;10.03
73662;BMP280;61956;52.540;13.382;2022-09-28T01:29:51;76260.91;;;10.03
73662;BMP280;61956;52.540;13.382;2022-09-28T01:32:33;76762.41;;;10.05
73662;BMP280;61956;52.540;13.382;2022-09-28T01:35:09;77115.56;;;10.08
73662;BMP280;61956;52.540;13.382;2022-09-28T01:37:50;76608.19;;;10.05
73662;BMP280;61956;52.540;13.382;2022-09-28T01:40:25;76210.91;;;10.02
73662;BMP280;61956;52.540;13.382;2022-09-28T01:43:01;75749.53;;;9.98
73662;BMP280;61956;52.540;13.382;2022-09-28T01:45:39;75924.81;;;9.99
73662;BMP280;61956;52.540;13.382;2022-09-28T01:48:16;76332.50;;;10.00
73662;BMP280;61956;52.540;13.382;2022-09-28T01:50:54;75850.56;;;9.97
73662;BMP280;61956;52.540;13.382;2022-09-28T01:53:31;75448.91;;;9.93
73662;BMP280;61956;52.540;13.382;2022-09-28T01:56:14;75811.69;;;9.94
73662;BMP280;61956;52.540;13.382;2022-09-28T01:58:54;76318.75;;;9.97
73662;BMP280;61956;52.540;13.382;2022-09-28T02:01:35;76574.91;;;9.99
73662;BMP280;61956;52.540;13.382;2022-09-28T02:04:11;75799.41;;;9.94
73662;BMP280;61956;52.540;13.382;2022-09-28T02:06:51;76209.06;;;9.95
73662;BMP280;61956;52.540;13.382;2022-09-28T02:09:27;76022.34;;;9.94
73662;BMP280;61956;52.540;13.382;2022-09-28T02:12:06;76531.44;;;9.97
73662;BMP280;61956;52.540;13.382;2022-09-28T02:14:46;76672.56;;;9.99
73662;BMP280;61956;52.540;13.382;2022-09-28T02:17:19;77052.72;;;10.01
73662;BMP280;61956;52.540;13.382;2022-09-28T02:19:48;77159.84;;;10.02
73662;BMP280;61956;52.540;13.382;2022-09-28T02:22:23;76470.94;;;9.98
73662;BMP280;61956;52.540;13.382;2022-09-28T02:24:58;75858.75;;;9.92
73662;BMP280;61956;52.540;13.382;2022-09-28T02:27:36;75806.25;;;9.91
73662;BMP280;61956;52.540;13.382;2022-09-28T02:30:13;75541.91;;;9.89
73662;BMP280;61956;52.540;13.382;2022-09-28T02:32:48;75716.56;;;9.89
73662;BMP280;61956;52.540;13.382;2022-09-28T02:35:21;75871.28;;;9.90
73662;BMP280;61956;52.540;13.382;2022-09-28T02:37:50;75166.31;;;9.84
73662;BMP280;61956;52.540;13.382;2022-09-28T02:40:23;75459.66;;;9.85
73662;BMP280;61956;52.540;13.382;2022-09-28T02:43:02;75924.31;;;9.87
73662;BMP280;61956;52.540;13.382;2022-09-28T02:45:52;75953.72;;;9.88
73662;BMP280;61956;52.540;13.382;2022-09-28T02:48:48;75443.69;;;9.84
73662;BMP280;61956;52.540;13.382;2022-09-28T02:51:33;75178.88;;;9.82
73662;BMP280;61956;52.540;13.382;2022-09-28T02:54:27;75290.72;;;9.81
73662;BMP280;61956;52.540;13.382;2022-09-28T02:57:11;75253.03;;;9.79
73662;BMP280;61956;52.540;13.382;2022-09-28T02:59:52;76251.97;;;9.86
73662;BMP280;61956;52.540;13.382;2022-09-28T03:02:35;75753.56;;;9.81
73662;BMP280;61956;52.540;13.382;2022-09-28T03:05:14;75977.34;;;9.84
73662;BMP280;61956;52.540;13.382;2022-09-28T03:07:53;75945.38;;;9.83
73662;BMP280;61956;52.540;13.382;2022-09-28T03:10:32;75106.38;;;9.77
73662;BMP280;61956;52.540;13.382;2022-09-28T03:13:03;74932.06;;;9.75
73662;BMP280;61956;52.540;13.382;2022-09-28T03:15:36;75064.44;;;9.74
73662;BMP280;61956;52.540;13.382;2022-09-28T03:18:09;74332.25;;;9.68
73662;BMP280;61956;52.540;13.382;2022-09-28T03:20:40;73684.53;;;9.63
73662;BMP280;61956;52.540;13.382;2022-09-28T03:23:09;72462.19;;;9.52
73662;BMP280;61956;52.540;13.382;2022-09-28T03:25:38;72141.88;;;9.47
73662;BMP280;61956;52.540;13.382;2022-09-28T03:28:07;72043.75;;;9.44
73662;BMP280;61956;52.540;13.382;2022-09-28T03:30:39;71720.97;;;9.40
73662;BMP280;61956;52.540;13.382;2022-09-28T03:33:11;71744.41;;;9.38
73662;BMP280;61956;52.540;13.382;2022-09-28T03:35:41;72728.63;;;9.42
73662;BMP280;61956;52.540;13.382;2022-09-28T03:38:13;73086.72;;;9.44
73662;BMP280;61956;52.540;13.382;2022-09-28T03:40:42;73646.63;;;9.47
73662;BMP280;61956;52.540;13.382;2022-09-28T03:43:11;74306.47;;;9.52
73662;BMP280;61956;52.540;13.382;2022-09-28T03:45:41;74694.78;;;9.55
73662;BMP280;61956;52.540;13.382;2022-09-28T03:48:12;74284.50;;;9.53
73662;BMP280;61956;52.540;13.382;2022-09-28T03:50:41;74756.38;;;9.55
73662;BMP280;61956;52.540;13.382;2022-09-28T03:53:11;75165.91;;;9.59
73662;BMP280;61956;52.540;13.382;2022-09-28T03:55:40;74731.25;;;9.56
73662;BMP280;61956;52.540;13.382;2022-09-28T03:58:09;73815.03;;;9.48
73662;BMP280;61956;52.540;13.382;2022-09-28T04:00:38;73248.84;;;9.44
73662;BMP280;61956;52.540;13.382;2022-09-28T04:03:08;72665.78;;;9.39
73662;BMP280;61956;52.540;13.382;2022-09-28T04:05:47;72655.34;;;9.36
73662;BMP280;61956;52.540;13.382;2022-09-28T04:08:16;71982.81;;;9.31
73662;BMP280;61956;52.540;13.382;2022-09-28T04:10:46;71407.44;;;9.25
73662;BMP280;61956;52.540;13.382;2022-09-28T04:13:15;71691.28;;;9.24
73662;BMP280;61956;52.540;13.382;2022-09-28T04:15:51;71510.31;;;9.22
73662;BMP280;61956;52.540;13.382;2022-09-28T04:18:24;71634.75;;;9.21
73662;BMP280;61956;52.540;13.382;2022-09-28T04:21:17;71144.59;;;9.16
73662;BMP280;61956;52.540;13.382;2022-09-28T04:23:56;70889.84;;;9.12
73662;BMP280;61956;52.540;13.382;2022-09-28T04:26:26;71259.19;;;9.13
73662;BMP280;61956;52.540;13.382;2022-09-28T04:28:56;72552.16;;;9.21
73662;BMP280;61956;52.540;13.382;2022-09-28T04:31:39;73013.75;;;9.24
73662;BMP280;61956;52.540;13.382;2022-09-28T04:34:10;73481.72;;;9.28
73662;BMP280;61956;52.540;13.382;2022-09-28T04:36:45;74526.91;;;9.36
73662;BMP280;61956;52.540;13.382;2022-09-28T04:39:16;73799.03;;;9.32
73662;BMP280;61956;52.540;13.382;2022-09-28T04:41:54;73571.16;;;9.30
73662;BMP280;61956;52.540;13.382;2022-09-28T04:44:26;74339.06;;;9.35
73662;BMP280;61956;52.540;13.382;2022-09-28T04:47:03;75575.91;;;9.44
73662;BMP280;61956;52.540;13.382;2022-09-28T04:49:33;75476.38;;;9.45
73662;BMP280;61956;52.540;13.382;2022-09-28T04:52:15;75535.97;;;9.45
73662;BMP280;61956;52.540;13.382;2022-09-28T04:54:44;76239.22;;;9.52
73662;BMP280;61956;52.540;13.382;2022-09-28T04:57:13;75323.53;;;9.46
73662;BMP280;61956;52.540;13.382;2022-09-28T04:59:43;75076.28;;;9.43
73662;BMP280;61956;52.540;13.382;2022-09-28T05:02:12;74764.66;;;9.42
73662;BMP280;61956;52.540;13.382;2022-09-28T05:05:10;74254.13;;;9.37
73662;BMP280;61956;52.540;13.382;2022-09-28T05:07:59;73856.59;;;9.33
73662;BMP280;61956;52.540;13.382;2022-09-28T05:10:28;74055.81;;;9.34
73662;BMP280;61956;52.540;13.382;2022-09-28T05:12:57;74664.56;;;9.37
73662;BMP280;61956;52.540;13.382;2022-09-28T05:15:26;74954.81;;;9.40
73662;BMP280;61956;52.540;13.382;2022-09-28T05:17:55;74964.50;;;9.39
73662;BMP280;61956;52.540;13.382;2022-09-28T05:20:39;74925.41;;;9.39
73662;BMP280;61956;52.540;13.382;2022-09-28T05:23:12;75855.41;;;9.46
73662;BMP280;61956;52.540;13.382;2022-09-28T05:25:43;76367.81;;;9.50
73662;BMP280;61956;52.540;13.382;2022-09-28T05:28:21;76093.09;;;9.50
73662;BMP280;61956;52.540;13.382;2022-09-28T05:31:12;76136.75;;;9.50
73662;BMP280;61956;52.540;13.382;2022-09-28T05:34:07;77024.56;;;9.56
73662;BMP280;61956;52.540;13.382;2022-09-28T05:36:37;77250.22;;;9.60
73662;BMP280;61956;52.540;13.382;2022-09-28T05:39:11;77375.31;;;9.62
73662;BMP280;61956;52.540;13.382;2022-09-28T05:41:40;77644.88;;;9.64
73662;BMP280;61956;52.540;13.382;2022-09-28T05:44:09;77590.69;;;9.66
73662;BMP280;61956;52.540;13.382;2022-09-28T05:46:38;78027.94;;;9.68
73662;BMP280;61956;52.540;13.382;2022-09-28T05:49:09;77430.81;;;9.65
73662;BMP280;61956;52.540;13.382;2022-09-28T05:51:38;77268.38;;;9.65
73662;BMP280;61956;52.540;13.382;2022-09-28T05:54:11;76618.34;;;9.60
73662;BMP280;61956;52.540;13.382;2022-09-28T05:56:44;77247.25;;;9.64
73662;BMP280;61956;52.540;13.382;2022-09-28T05:59:13;77503.34;;;9.66
73662;BMP280;61956;52.540;13.382;2022-09-28T06:01:42;78163.22;;;9.72
73662;BMP280;61956;52.540;13.382;2022-09-28T06:04:12;78096.41;;;9.72
73662;BMP280;61956;52.540;13.382;2022-09-28T06:06:42;78959.03;;;9.78
73662;BMP280;61956;52.540;13.382;2022-09-28T06:09:14;79372.59;;;9.84
73662;BMP280;61956;52.540;13.382;2022-09-28T06:11:59;80336.16;;;9.91
73662;BMP280;61956;52.540;13.382;2022-09-28T06:14:36;81374.09;;;10.03
73662;BMP280;61956;52.540;13.382;2022-09-28T06:17:05;80730.06;;;10.00
73662;BMP280;61956;52.540;13.382;2022-09-28T06:19:34;80856.09;;;10.02
73662;BMP280;61956;52.540;13.382;2022-09-28T06:22:15;80025.13;;;9.98
73662;BMP280;61956;52.540;13.382;2022-09-28T06:24:55;79762.81;;;9.96
73662;BMP280;61956;52.540;13.382;2022-09-28T06:27:25;79235.00;;;9.93
73662;BMP280;61956;52.540;13.382;2022-09-28T06:29:54;79231.78;;;9.93
73662;BMP280;61956;52.540;13.382;2022-09-28T06:32:27;79180.22;;;9.95
73662;BMP280;61956;52.540;13.382;2022-09-28T06:34:57;78586.06;;;9.88
73662;BMP280;61956;52.540;13.382;2022-09-28T06:37:28;78336.03;;;9.88
73662;BMP280;61956;52.540;13.382;2022-09-28T06:40:02;79553.19;;;9.95
73662;BMP280;61956;52.540;13.382;2022-09-28T06:42:31;79693.34;;;9.96
73662;BMP280;61956;52.540;13.382;2022-09-28T06:45:20;80121.41;;;10.01
73662;BMP280;61956;52.540;13.382;2022-09-28T06:48:09;79774.19;;;9.99
73662;BMP280;61956;52.540;13.382;2022-09-28T06:50:41;80289.19;;;10.04
73662;BMP280;61956;52.540;13.382;2022-09-28T06:53:29;80503.31;;;10.06
73662;BMP280;61956;52.540;13.382;2022-09-28T06:56:22;80808.75;;;10.10
73662;BMP280;61956;52.540;13.382;2022-09-28T06:58:52;81059.66;;;10.13
73662;BMP280;61956;52.540;13.382;2022-09-28T07:01:22;81406.47;;;10.16
73662;BMP280;61956;52.540;13.382;2022-09-28T07:04:02;80981.72;;;10.14
73662;BMP280;61956;52.540;13.382;2022-09-28T07:06:50;81876.28;;;10.22
73662;BMP280;61956;52.540;13.382;2022-09-28T07:09:38;84071.66;;;10.40
73662;BMP280;61956;52.540;13.382;2022-09-28T07:12:17;83160.34;;;10.39
73662;BMP280;61956;52.540;13.382;2022-09-28T07:14:59;89019.78;;;10.85
73662;BMP280;61956;52.540;13.382;2022-09-28T07:17:30;87350.50;;;10.83
73662;BMP280;61956;52.540;13.382;2022-09-28T07:20:01;85386.44;;;10.72
73662;BMP280;61956;52.540;13.382;2022-09-28T07:22:30;82090.66;;;10.49
73662;BMP280;61956;52.540;13.382;2022-09-28T07:25:00;80786.28;;;10.38
73662;BMP280;61956;52.540;13.382;2022-09-28T07:27:44;82651.22;;;10.48
73662;BMP280;61956;52.540;13.382;2022-09-28T07:30:48;83955.72;;;10.60
73662;BMP280;61956;52.540;13.382;2022-09-28T07:33:37;84016.97;;;10.62
73662;BMP280;61956;52.540;13.382;2022-09-28T07:36:35;89488.84;;;11.05
73662;BMP280;61956;52.540;13.382;2022-09-28T07:39:04;94987.16;;;11.55
73662;BMP280;61956;52.540;13.382;2022-09-28T07:41:34;97310.78;;;11.92
73662;BMP280;61956;52.540;13.382;2022-09-28T07:44:05;93513.78;;;11.78
73662;BMP280;61956;52.540;13.382;2022-09-28T07:46:35;93552.50;;;11.85
73662;BMP280;61956;52.540;13.382;2022-09-28T07:49:16;88464.91;;;11.55
73662;BMP280;61956;52.540;13.382;2022-09-28T07:52:16;87029.50;;;11.43
73662;BMP280;61956;52.540;13.382;2022-09-28T07:55:09;87529.31;;;11.46
73662;BMP280;61956;52.540;13.382;2022-09-28T07:57:54;88745.69;;;11.56
73662;BMP280;61956;52.540;13.382;2022-09-28T08:00:41;89886.03;;;11.67
73662;BMP280;61956;52.540;13.382;2022-09-28T08:03:13;92621.25;;;11.91
73662;BMP280;61956;52.540;13.382;2022-09-28T08:05:42;93867.16;;;12.11
73662;BMP280;61956;52.540;13.382;2022-09-28T08:08:12;94647.66;;;12.24
73662;BMP280;61956;52.540;13.382;2022-09-28T08:10:43;92164.69;;;12.13
73662;BMP280;61956;52.540;13.382;2022-09-28T08:13:37;94312.28;;;12.36
73662;BMP280;61956;52.540;13.382;2022-09-28T08:16:41;94860.66;;;12.51
73662;BMP280;61956;52.540;13.382;2022-09-28T08:19:15;95461.72;;;12.64
73662;BMP280;61956;52.540;13.382;2022-09-28T08:21:47;99008.94;;;13.03
73662;BMP280;61956;52.540;13.382;2022-09-28T08:24:15;95388.97;;;12.89
73662;BMP280;61956;52.540;13.382;2022-09-28T08:26:46;94520.09;;;12.83
73662;BMP280;61956;52.540;13.382;2022-09-28T08:29:16;97006.47;;;13.11
73662;BMP280;61956;52.540;13.382;2022-09-28T08:31:51;97376.38;;;13.28
73662;BMP280;61956;52.540;13.382;2022-09-28T08:34:40;96683.09;;;13.26
73662;BMP280;61956;52.540;13.382;2022-09-28T08:37:22;95582.09;;;13.29
73662;BMP280;61956;52.540;13.382;2022-09-28T08:40:22;92059.28;;;13.00
73662;BMP280;61956;52.540;13.382;2022-09-28T08:47:01;90861.00;;;12.92
73662;BMP280;61956;52.540;13.382;2022-09-28T08:50:26;89104.19;;;12.76
73662;BMP280;61956;52.540;13.382;2022-09-28T08:53:23;90060.94;;;12.81
73662;BMP280;61956;52.540;13.382;2022-09-28T08:56:14;90943.13;;;12.89
73662;BMP280;61956;52.540;13.382;2022-09-28T08:58:56;91626.41;;;12.95
73662;BMP280;61956;52.540;13.382;2022-09-28T09:01:33;91962.03;;;13.01
73662;BMP280;61956;52.540;13.382;2022-09-28T09:04:14;91021.88;;;12.97
73662;BMP280;61956;52.540;13.382;2022-09-28T09:07:16;91548.81;;;13.03
73662;BMP280;61956;52.540;13.382;2022-09-28T09:10:16;91022.78;;;13.00
73662;BMP280;61956;52.540;13.382;2022-09-28T09:13:17;90787.81;;;12.99
73662;BMP280;61956;52.540;13.382;2022-09-28T09:16:10;91197.84;;;13.04
73662;BMP280;61956;52.540;13.382;2022-09-28T09:19:15;92446.47;;;13.17
73662;BMP280;61956;52.540;13.382;2022-09-28T09:22:20;93629.22;;;13.30
73662;BMP280;61956;52.540;13.382;2022-09-28T09:25:06;96198.81;;;13.57
73662;BMP280;61956;52.540;13.382;2022-09-28T09:27:57;98227.88;;;13.91
73662;BMP280;61956;52.540;13.382;2022-09-28T09:30:59;102114.66;;;14.41
73662;BMP280;61956;52.540;13.382;2022-09-28T09:33:56;100905.94;;;14.51
73662;BMP280;61956;52.540;13.382;2022-09-28T09:37:02;101657.59;;;14.76
73662;BMP280;61956;52.540;13.382;2022-09-28T09:40:21;101745.84;;;14.97
73662;BMP280;61956;52.540;13.382;2022-09-28T09:43:33;100890.66;;;15.02
73662;BMP280;61956;52.540;13.382;2022-09-28T09:46:45;97861.44;;;14.90
73662;BMP280;61956;52.540;13.382;2022-09-28T09:49:24;101141.13;;;15.20
73662;BMP280;61956;52.540;13.382;2022-09-28T09:52:05;97869.81;;;15.07
73662;BMP280;61956;52.540;13.382;2022-09-28T09:54:44;96887.28;;;14.98
73662;BMP280;61956;52.540;13.382;2022-09-28T09:57:47;97987.06;;;15.13
73662;BMP280;61956;52.540;13.382;2022-09-28T10:00:38;95879.63;;;15.01
73662;BMP280;61956;52.540;13.382;2022-09-28T10:03:24;94539.66;;;14.87
73662;BMP280;61956;52.540;13.382;2022-09-28T10:06:08;95126.44;;;14.92
73662;BMP280;61956;52.540;13.382;2022-09-28T10:08:49;93944.84;;;14.82
73662;BMP280;61956;52.540;13.382;2022-09-28T10:11:26;94853.53;;;14.89
73662;BMP280;61956;52.540;13.382;2022-09-28T10:14:00;93238.22;;;14.78
73662;BMP280;61956;52.540;13.382;2022-09-28T10:16:41;93097.00;;;14.74
73662;BMP280;61956;52.540;13.382;2022-09-28T10:19:24;92527.78;;;14.68
73662;BMP280;61956;52.540;13.382;2022-09-28T10:22:20;92203.25;;;14.65
73662;BMP280;61956;52.540;13.382;2022-09-28T10:24:55;91627.75;;;14.57
73662;BMP280;61956;52.540;13.382;2022-09-28T10:27:29;91499.28;;;14.54
73662;BMP280;61956;52.540;13.382;2022-09-28T10:30:12;90476.31;;;14.43
73662;BMP280;61956;52.540;13.382;2022-09-28T10:32:46;91416.75;;;14.49
73662;BMP280;61956;52.540;13.382;2022-09-28T10:35:22;91054.47;;;14.43
73662;BMP280;61956;52.540;13.382;2022-09-28T10:37:58;89331.03;;;14.28
73662;BMP280;61956;52.540;13.382;2022-09-28T10:40:53;86535.31;;;14.00
73662;BMP280;61956;52.540;13.382;2022-09-28T10:43:50;86316.91;;;13.88
73662;BMP280;61956;52.540;13.382;2022-09-28T10:46:33;84933.38;;;13.69
73662;BMP280;61956;52.540;13.382;2022-09-28T10:49:14;85227.59;;;13.62
73662;BMP280;61956;52.540;13.382;2022-09-28T10:51:53;87615.47;;;13.79
73662;BMP280;61956;52.540;13.382;2022-09-28T10:54:33;86731.44;;;13.70
73662;BMP280;61956;52.540;13.382;2022-09-28T10:57:26;88121.09;;;13.80
73662;BMP280;61956;52.540;13.382;2022-09-28T11:00:02;87037.59;;;13.70
73662;BMP280;61956;52.540;13.382;2022-09-28T11:02:40;87735.19;;;13.73
73662;BMP280;61956;52.540;13.382;2022-09-28T11:05:19;89244.53;;;13.86
73662;BMP280;61956;52.540;13.382;2022-09-28T11:07:55;91386.69;;;14.07
73662;BMP280;61956;52.540;13.382;2022-09-28T11:10:32;91640.56;;;14.16
73662;BMP280;61956;52.540;13.382;2022-09-28T11:13:15;91707.47;;;14.21
73662;BMP280;61956;52.540;13.382;2022-09-28T11:15:54;90459.88;;;14.14
73662;BMP280;61956;52.540;13.382;2022-09-28T11:18:31;92104.09;;;14.25
73662;BMP280;61956;52.540;13.382;2022-09-28T11:21:09;91634.19;;;14.28
73662;BMP280;61956;52.540;13.382;2022-09-28T11:23:56;93471.75;;;14.45
73662;BMP280;61956;52.540;13.382;2022-09-28T11:26:35;93077.31;;;14.49
73662;BMP280;61956;52.540;13.382;2022-09-28T11:29:24;91844.22;;;14.44
73662;BMP280;61956;52.540;13.382;2022-09-28T11:32:54;91626.59;;;14.41
73662;BMP280;61956;52.540;13.382;2022-09-28T11:35:53;91284.34;;;14.40
73662;BMP280;61956;52.540;13.382;2022-09-28T11:38:36;90044.00;;;14.29
73662;BMP280;61956;52.540;13.382;2022-09-28T11:41:38;88972.66;;;14.15
73662;BMP280;61956;52.540;13.382;2022-09-28T11:44:43;88525.41;;;14.09
73662;BMP280;61956;52.540;13.382;2022-09-28T11:50:25;88342.38;;;14.00
73662;BMP280;61956;52.540;13.382;2022-09-28T11:53:10;87196.09;;;13.90
73662;BMP280;61956;52.540;13.382;2022-09-28T11:55:52;87224.47;;;13.86
73662;BMP280;61956;52.540;13.382;2022-09-28T11:58:28;88634.09;;;13.93
73662;BMP280;61956;52.540;13.382;2022-09-28T12:01:07;86486.56;;;13.79
73662;BMP280;61956;52.540;13.382;2022-09-28T12:04:08;84423.94;;;13.54
73662;BMP280;61956;52.540;13.382;2022-09-28T12:06:45;83967.22;;;13.43
73662;BMP280;61956;52.540;13.382;2022-09-28T12:09:30;82126.50;;;13.21
73662;BMP280;61956;52.540;13.382;2022-09-28T12:12:20;81679.88;;;13.09
73662;BMP280;61956;52.540;13.382;2022-09-28T12:14:56;81238.59;;;12.99
73662;BMP280;61956;52.540;13.382;2022-09-28T12:17:33;80690.28;;;12.89
73662;BMP280;61956;52.540;13.382;2022-09-28T12:20:15;78984.75;;;12.67
73662;BMP280;61956;52.540;13.382;2022-09-28T12:23:01;79756.75;;;12.65
73662;BMP280;61956;52.540;13.382;2022-09-28T12:25:39;79687.44;;;12.58
73662;BMP280;61956;52.540;13.382;2022-09-28T12:28:17;80063.41;;;12.57
73662;BMP280;61956;52.540;13.382;2022-09-28T12:30:57;80783.03;;;12.58
73662;BMP280;61956;52.540;13.382;2022-09-28T12:33:45;82099.91;;;12.66
73662;BMP280;61956;52.540;13.382;2022-09-28T12:36:29;83208.72;;;12.73
73662;BMP280;61956;52.540;13.382;2022-09-28T12:39:19;84140.28;;;12.81
73662;BMP280;61956;52.540;13.382;2022-09-28T12:42:14;85600.19;;;12.95
73662;BMP280;61956;52.540;13.382;2022-09-28T12:45:06;87770.28;;;13.16
73662;BMP280;61956;52.540;13.382;2022-09-28T12:48:00;88180.66;;;13.26
73662;BMP280;61956;52.540;13.382;2022-09-28T12:50:47;87466.66;;;13.23
73662;BMP280;61956;52.540;13.382;2022-09-28T12:53:48;86630.91;;;13.19
73662;BMP280;61956;52.540;13.382;2022-09-28T12:56:35;86963.50;;;13.21
73662;BMP280;61956;52.540;13.382;2022-09-28T12:59:19;88171.34;;;13.32
73662;BMP280;61956;52.540;13.382;2022-09-28T13:02:06;87702.38;;;13.31
73662;BMP280;61956;52.540;13.382;2022-09-28T13:05:06;86378.28;;;13.22
73662;BMP280;61956;52.540;13.382;2022-09-28T13:07:50;86649.25;;;13.23
73662;BMP280;61956;52.540;13.382;2022-09-28T13:10:32;87961.91;;;13.33
73662;BMP280;61956;52.540;13.382;2022-09-28T13:13:20;85679.03;;;13.16
73662;BMP280;61956;52.540;13.382;2022-09-28T13:16:07;85872.13;;;13.17
73662;BMP280;61956;52.540;13.382;2022-09-28T13:18:48;86504.66;;;13.21
73662;BMP280;61956;52.540;13.382;2022-09-28T13:21:28;87344.97;;;13.27
73662;BMP280;61956;52.540;13.382;2022-09-28T13:24:13;87742.66;;;13.32
73662;BMP280;61956;52.540;13.382;2022-09-28T13:26:50;87033.22;;;13.29
73662;BMP280;61956;52.540;13.382;2022-09-28T13:29:22;86933.34;;;13.28
73662;BMP280;61956;52.540;13.382;2022-09-28T13:31:53;88259.94;;;13.39
73662;BMP280;61956;52.540;13.382;2022-09-28T13:34:27;86742.72;;;13.27
73662;BMP280;61956;52.540;13.382;2022-09-28T13:37:18;86634.41;;;13.25
73662;BMP280;61956;52.540;13.382;2022-09-28T13:39:53;86589.00;;;13.24
73662;BMP280;61956;52.540;13.382;2022-09-28T13:42:55;86773.09;;;13.24
73662;BMP280;61956;52.540;13.382;2022-09-28T13:45:41;87767.34;;;13.33
73662;BMP280;61956;52.540;13.382;2022-09-28T13:48:24;87858.94;;;13.36
73662;BMP280;61956;52.540;13.382;2022-09-28T13:51:23;87752.59;;;13.36
73662;BMP280;61956;52.540;13.382;2022-09-28T13:54:11;88180.31;;;13.41
73662;BMP280;61956;52.540;13.382;2022-09-28T13:57:03;88708.88;;;13.48
73662;BMP280;61956;52.540;13.382;2022-09-28T13:59:50;89176.38;;;13.52
73662;BMP280;61956;52.540;13.382;2022-09-28T14:02:41;89899.75;;;13.63
73662;BMP280;61956;52.540;13.382;2022-09-28T14:08:26;87936.47;;;13.53
73662;BMP280;61956;52.540;13.382;2022-09-28T14:14:49;88164.56;;;13.49
73662;BMP280;61956;52.540;13.382;2022-09-28T14:17:47;89121.13;;;13.60
73662;BMP280;61956;52.540;13.382;2022-09-28T14:20:26;88721.19;;;13.57
73662;BMP280;61956;52.540;13.382;2022-09-28T14:23:13;88747.16;;;13.57
73662;BMP280;61956;52.540;13.382;2022-09-28T14:26:35;89140.16;;;13.62
73662;BMP280;61956;52.540;13.382;2022-09-28T14:29:24;85997.72;;;13.38
73662;BMP280;61956;52.540;13.382;2022-09-28T14:32:03;86651.09;;;13.38
73662;BMP280;61956;52.540;13.382;2022-09-28T14:34:55;86324.25;;;13.34
73662;BMP280;61956;52.540;13.382;2022-09-28T14:37:28;85887.94;;;13.27
73662;BMP280;61956;52.540;13.382;2022-09-28T14:40:20;85342.91;;;13.21
73662;BMP280;61956;52.540;13.382;2022-09-28T14:43:25;85527.53;;;13.21
73662;BMP280;61956;52.540;13.382;2022-09-28T14:46:30;85535.25;;;13.19
73662;BMP280;61956;52.540;13.382;2022-09-28T14:49:45;85921.38;;;13.19
73662;BMP280;61956;52.540;13.382;2022-09-28T14:52:42;85350.56;;;13.15
73662;BMP280;61956;52.540;13.382;2022-09-28T14:55:12;86012.75;;;13.18
73662;BMP280;61956;52.540;13.382;2022-09-28T14:57:50;85494.34;;;13.14
73662;BMP280;61956;52.540;13.382;2022-09-28T15:00:25;85377.72;;;13.12
73662;BMP280;61956;52.540;13.382;2022-09-28T15:02:59;84877.03;;;13.07
73662;BMP280;61956;52.540;13.382;2022-09-28T15:05:41;84857.59;;;13.04
73662;BMP280;61956;52.540;13.382;2022-09-28T15:08:14;86103.88;;;13.12
73662;BMP280;61956;52.540;13.382;2022-09-28T15:10:48;86136.41;;;13.15
73662;BMP280;61956;52.540;13.382;2022-09-28T15:13:22;85531.88;;;13.11
73662;BMP280;61956;52.540;13.382;2022-09-28T15:16:02;84536.44;;;13.02
73662;BMP280;61956;52.540;13.382;2022-09-28T15:18:54;84263.91;;;12.95
73662;BMP280;61956;52.540;13.382;2022-09-28T15:21:40;85320.53;;;13.01
73662;BMP280;61956;52.540;13.382;2022-09-28T15:24:26;85946.31;;;13.06
73662;BMP280;61956;52.540;13.382;2022-09-28T15:26:59;87468.44;;;13.21
73662;BMP280;61956;52.540;13.382;2022-09-28T15:29:30;88418.91;;;13.29
73662;BMP280;61956;52.540;13.382;2022-09-28T15:31:59;89671.53;;;13.44